Time;durP1;ratioP1;P1;durP2;ratioP2;P2;SDS_P1;SDS_P2;PMS_P1;PMS_P2;Temp;Humidity;BMP_temperature;BMP_pressure;BME280_temperature;BME280_humidity;BME280_pressure;Samples;Min_cycle;Max_cycle;Signal;HPM_P1;HPM_P2
2022/08/07 00:01:17;;;;;;;5.88;4.43;;;;;;;19.55;100.00;90811.25;5030833;28;20037;-70
2022/08/07 00:03:43;;;;;;;5.15;4.25;;;;;;;19.63;100.00;90814.81;5033691;28;20124;-70
2022/08/07 00:06:09;;;;;;;5.07;4.07;;;;;;;19.69;100.00;90803.31;5034456;28;20136;-71
2022/08/07 00:08:35;;;;;;;4.25;3.55;;;;;;;19.72;100.00;90788.31;5034529;28;20092;-70
2022/08/07 00:11:03;;;;;;;4.35;3.70;;;;;;;19.76;100.00;90794.56;5034350;28;20033;-70
2022/08/07 00:13:28;;;;;;;5.82;4.38;;;;;;;19.77;100.00;90800.72;5031556;28;20580;-70
2022/08/07 00:15:54;;;;;;;6.18;3.95;;;;;;;19.61;100.00;90795.53;5034438;28;20044;-70
2022/08/07 00:18:23;;;;;;;5.68;3.97;;;;;;;19.59;100.00;90806.69;5034077;28;20038;-70
2022/08/07 00:20:48;;;;;;;4.78;4.03;;;;;;;19.49;100.00;90804.59;5033068;28;20048;-70
2022/08/07 00:23:14;;;;;;;4.85;3.60;;;;;;;19.54;100.00;90814.28;5034189;28;20042;-70
2022/08/07 00:25:39;;;;;;;4.40;3.70;;;;;;;19.57;100.00;90821.69;5034074;28;20034;-70
2022/08/07 00:28:05;;;;;;;4.43;3.80;;;;;;;19.61;100.00;90833.31;5034082;28;20044;-70
2022/08/07 00:30:30;;;;;;;4.57;4.03;;;;;;;19.64;100.00;90844.13;5033964;28;20034;-69
2022/08/07 00:32:56;;;;;;;4.47;3.58;;;;;;;19.72;100.00;90850.41;5033973;28;20491;-70
2022/08/07 00:35:22;;;;;;;6.80;4.82;;;;;;;19.62;100.00;90834.84;5034008;28;20112;-70
2022/08/07 00:37:47;;;;;;;8.18;4.85;;;;;;;19.43;100.00;90833.03;5033781;28;20038;-70
2022/08/07 00:40:14;;;;;;;7.38;5.13;;;;;;;19.25;100.00;90824.69;5033847;28;20078;-70
2022/08/07 00:42:40;;;;;;;6.55;3.95;;;;;;;18.99;100.00;90816.59;5033807;28;20060;-70
2022/08/07 00:45:07;;;;;;;5.15;4.18;;;;;;;18.98;100.00;90833.91;5033688;28;20044;-70
2022/08/07 00:47:33;;;;;;;4.85;4.22;;;;;;;19.02;100.00;90837.44;5033615;28;20045;-70
2022/08/07 00:50:00;;;;;;;5.70;3.95;;;;;;;19.12;100.00;90844.91;5033684;28;20068;-70
2022/08/07 00:52:26;;;;;;;7.05;4.68;;;;;;;19.20;100.00;90835.00;5033577;28;20408;-70
2022/08/07 00:54:51;;;;;;;7.80;4.90;;;;;;;19.23;100.00;90818.88;5033516;28;20559;-70
2022/08/07 00:57:17;;;;;;;5.85;3.53;;;;;;;19.31;100.00;90822.44;5033703;28;20594;-70
2022/08/07 00:59:43;;;;;;;6.03;4.20;;;;;;;19.34;100.00;90821.72;5033474;28;20131;-69
2022/08/07 01:02:10;;;;;;;5.10;4.05;;;;;;;19.23;100.00;90829.66;5033429;28;20077;-69
2022/08/07 01:04:37;;;;;;;6.97;4.78;;;;;;;19.17;100.00;90827.66;5033342;28;20045;-70
2022/08/07 01:07:03;;;;;;;6.38;4.70;;;;;;;19.15;100.00;90823.38;5033239;28;20046;-70
2022/08/07 01:09:29;;;;;;;6.50;4.50;;;;;;;19.10;100.00;90814.84;5033057;28;20057;-69
2022/08/07 01:11:55;;;;;;;5.90;4.43;;;;;;;18.99;100.00;90813.91;5033219;28;20045;-70
2022/08/07 01:14:22;;;;;;;5.53;4.53;;;;;;;19.01;100.00;90825.09;5032689;28;20042;-70
2022/08/07 01:16:48;;;;;;;9.85;5.28;;;;;;;18.98;100.00;90812.34;5032972;28;20139;-70
2022/08/07 01:19:15;;;;;;;6.60;4.53;;;;;;;18.98;100.00;90813.13;5033058;28;20492;-70
2022/08/07 01:21:41;;;;;;;6.10;4.28;;;;;;;18.97;100.00;90808.09;5032944;28;20100;-69
2022/08/07 01:24:08;;;;;;;4.93;4.10;;;;;;;19.05;100.00;90815.91;5032865;28;20113;-69
2022/08/07 01:26:33;;;;;;;4.53;3.53;;;;;;;19.04;100.00;90819.75;5032859;28;20037;-69
2022/08/07 01:28:59;;;;;;;5.88;4.03;;;;;;;18.99;100.00;90822.00;5032860;28;20029;-68
2022/08/07 01:31:32;;;;;;;6.28;4.07;;;;;;;18.98;100.00;90818.50;5032851;28;20028;-69
2022/08/07 01:34:01;;;;;;;5.73;4.40;;;;;;;19.02;100.00;90813.16;5032790;28;20160;-69
2022/08/07 01:36:28;;;;;;;6.28;4.10;;;;;;;19.03;100.00;90820.13;5032510;28;20107;-70
2022/08/07 01:38:55;;;;;;;4.50;3.58;;;;;;;18.94;100.00;90822.31;5032693;28;20045;-69
2022/08/07 01:41:21;;;;;;;5.60;3.90;;;;;;;18.97;100.00;90816.19;5032621;28;20034;-69
2022/08/07 01:43:48;;;;;;;4.32;3.65;;;;;;;19.00;100.00;90824.31;5032498;28;20064;-68
2022/08/07 01:46:14;;;;;;;4.93;3.80;;;;;;;19.00;100.00;90810.06;5032689;28;20079;-68
2022/08/07 01:48:44;;;;;;;4.63;3.50;;;;;;;18.97;100.00;90810.78;5031166;28;20033;-68
2022/08/07 01:51:13;;;;;;;5.18;3.92;;;;;;;18.98;100.00;90809.66;5032344;28;20494;-68
2022/08/07 01:53:43;;;;;;;5.75;4.00;;;;;;;19.04;100.00;90811.66;5032387;28;20764;-67
2022/08/07 01:56:13;;;;;;;4.15;3.70;;;;;;;19.14;100.00;90810.28;5032150;28;20091;-69
2022/08/07 01:58:48;;;;;;;6.80;4.20;;;;;;;19.15;100.00;90809.13;5032232;28;20095;-69
2022/08/07 02:01:20;;;;;;;4.40;3.35;;;;;;;19.22;100.00;90811.91;5032226;28;20043;-70
2022/08/07 02:03:51;;;;;;;4.47;3.47;;;;;;;19.26;100.00;90812.00;5032080;28;20108;-69
2022/08/07 02:06:20;;;;;;;4.80;3.47;;;;;;;19.35;100.00;90818.66;5031986;28;20025;-70
2022/08/07 02:08:46;;;;;;;5.00;3.92;;;;;;;19.39;100.00;90816.78;5166004;22;21152;-74
2022/08/07 02:11:12;;;;;;;4.90;3.88;;;;;;;19.39;100.00;90818.69;5032176;28;20069;-74
2022/08/07 02:13:39;;;;;;;3.85;3.40;;;;;;;19.34;100.00;90814.41;5032232;28;20056;-73
2022/08/07 02:16:07;;;;;;;5.63;4.10;;;;;;;19.36;100.00;90820.22;5032074;28;20577;-73
2022/08/07 02:18:36;;;;;;;5.47;3.38;;;;;;;19.41;100.00;90814.53;5031899;28;20491;-73
2022/08/07 02:21:04;;;;;;;4.70;3.50;;;;;;;19.38;100.00;90815.22;5032182;28;20040;-73
2022/08/07 02:23:33;;;;;;;4.70;3.67;;;;;;;19.34;100.00;90809.00;5031759;28;20490;-73
2022/08/07 02:26:01;;;;;;;4.68;4.05;;;;;;;19.42;100.00;90818.78;5031128;28;20056;-73
2022/08/07 02:28:30;;;;;;;5.63;4.13;;;;;;;19.36;100.00;90827.53;5013988;28;20579;-75
2022/08/07 02:30:57;;;;;;;7.63;4.07;;;;;;;19.26;100.00;90823.56;5031788;28;20033;-74
2022/08/07 02:33:27;;;;;;;5.45;3.83;;;;;;;19.25;100.00;90824.69;5031773;28;20021;-73
2022/08/07 02:35:54;;;;;;;5.80;4.63;;;;;;;19.28;100.00;90837.44;5031684;28;20036;-73
2022/08/07 02:38:28;;;;;;;4.97;3.95;;;;;;;19.33;100.00;90839.81;5031680;28;20030;-72
2022/08/07 02:40:55;;;;;;;7.47;4.88;;;;;;;19.31;100.00;90850.22;5031630;28;20038;-72
2022/08/07 02:43:21;;;;;;;5.82;4.82;;;;;;;19.01;100.00;90865.53;5031428;28;20025;-73
2022/08/07 02:45:49;;;;;;;7.65;5.47;;;;;;;18.61;100.00;90860.59;5031310;28;20167;-76
2022/08/07 02:48:15;;;;;;;8.50;4.88;;;;;;;18.50;100.00;90865.81;5031384;28;20029;-74
2022/08/07 02:50:43;;;;;;;9.30;5.88;;;;;;;18.41;100.00;90859.88;5031204;28;20030;-72
2022/08/07 02:53:20;;;;;;;8.82;5.85;;;;;;;18.30;100.00;90865.03;5031205;28;20045;-73
2022/08/07 02:55:47;;;;;;;7.85;5.47;;;;;;;18.26;100.00;90859.59;5031253;28;20025;-70
2022/08/07 02:58:17;;;;;;;7.45;5.18;;;;;;;18.17;100.00;90853.69;5013659;28;20098;-71
2022/08/07 03:00:46;;;;;;;6.78;5.15;;;;;;;18.18;100.00;90857.94;5031092;28;20108;-74
2022/08/07 03:03:11;;;;;;;5.80;4.57;;;;;;;18.05;100.00;90861.13;5031197;28;20127;-73
2022/08/07 03:05:38;;;;;;;6.78;4.88;;;;;;;18.00;100.00;90864.13;5013436;28;20479;-71
2022/08/07 03:08:06;;;;;;;5.65;4.45;;;;;;;17.89;100.00;90866.56;5031253;28;20037;-71
2022/08/07 03:10:32;;;;;;;8.27;5.05;;;;;;;17.81;100.00;90857.56;5030884;28;20504;-71
2022/08/07 03:12:59;;;;;;;5.97;4.65;;;;;;;17.93;100.00;90865.50;5031199;28;20034;-71
2022/08/07 03:15:25;;;;;;;5.93;4.72;;;;;;;17.96;100.00;90866.72;5031142;28;20026;-71
2022/08/07 03:17:51;;;;;;;6.20;4.65;;;;;;;17.94;100.00;90856.31;5031304;28;20033;-71
2022/08/07 03:20:17;;;;;;;6.57;4.95;;;;;;;17.96;100.00;90858.63;5031191;28;20029;-71
2022/08/07 03:22:44;;;;;;;6.32;4.55;;;;;;;17.96;100.00;90855.94;5031078;28;20112;-71
2022/08/07 03:25:10;;;;;;;6.22;4.65;;;;;;;18.00;100.00;90853.34;5031128;28;20411;-71
2022/08/07 03:27:36;;;;;;;7.03;4.65;;;;;;;17.98;100.00;90859.06;5031163;28;20029;-69
2022/08/07 03:30:02;;;;;;;7.32;5.00;;;;;;;18.09;100.00;90860.03;5031070;28;20037;-70
2022/08/07 03:32:38;;;;;;;5.63;4.10;;;;;;;18.23;100.00;90862.25;5031154;28;20029;-70
2022/08/07 03:35:11;;;;;;;7.30;4.50;;;;;;;18.29;100.00;90855.41;5031036;28;20036;-70
2022/08/07 03:37:38;;;;;;;6.17;4.67;;;;;;;18.36;100.00;90847.47;5034117;28;20112;-70
2022/08/07 03:40:06;;;;;;;6.18;4.53;;;;;;;18.43;100.00;90847.59;5035050;28;20396;-72
2022/08/07 03:42:34;;;;;;;6.03;4.05;;;;;;;18.54;100.00;90847.78;5034919;28;20029;-71
2022/08/07 03:45:00;;;;;;;4.97;3.75;;;;;;;18.71;100.00;90846.56;5035029;28;20029;-70
2022/08/07 03:47:29;;;;;;;5.40;4.20;;;;;;;18.75;100.00;90845.47;5035015;28;20055;-70
2022/08/07 03:49:56;;;;;;;6.72;4.82;;;;;;;18.78;100.00;90847.47;5034841;28;20116;-71
2022/08/07 03:52:25;;;;;;;5.05;4.13;;;;;;;18.92;100.00;90841.50;5034837;28;20491;-71
2022/08/07 03:54:50;;;;;;;5.05;3.67;;;;;;;19.04;100.00;90841.31;5034744;28;20026;-71
2022/08/07 03:57:16;;;;;;;4.38;3.85;;;;;;;19.22;100.00;90838.09;5034766;28;20037;-71
2022/08/07 03:59:43;;;;;;;5.10;4.00;;;;;;;19.33;100.00;90839.81;5016879;28;20108;-71
2022/08/07 04:02:08;;;;;;;5.10;3.78;;;;;;;19.53;100.00;90837.78;5034705;28;20033;-71
2022/08/07 04:04:34;;;;;;;6.43;3.25;;;;;;;19.76;100.00;90840.44;5034660;28;20037;-71
2022/08/07 04:07:00;;;;;;;4.65;3.70;;;;;;;20.01;100.00;90835.31;5034648;28;20033;-71
2022/08/07 04:09:27;;;;;;;4.75;3.30;;;;;;;20.13;100.00;90837.78;5034290;28;20099;-71
2022/08/07 04:11:54;;;;;;;4.53;4.13;;;;;;;20.07;100.00;90833.09;5034434;28;20087;-70
2022/08/07 04:14:20;;;;;;;5.07;3.60;;;;;;;20.20;100.00;90837.88;5034382;28;20441;-70
2022/08/07 04:16:47;;;;;;;5.18;3.75;;;;;;;20.43;100.00;90835.06;5034482;28;20064;-71
2022/08/07 04:19:14;;;;;;;3.60;3.10;;;;;;;20.66;100.00;90828.69;5034262;28;20033;-71
2022/08/07 04:21:40;;;;;;;10.20;7.18;;;;;;;20.84;100.00;90840.47;5034283;28;20426;-71
2022/08/07 04:24:09;;;;;;;4.55;3.53;;;;;;;20.91;100.00;90835.13;5034303;28;20029;-72
2022/08/07 04:26:35;;;;;;;54.38;33.47;;;;;;;21.06;100.00;90846.84;5034186;28;20056;-70
2022/08/07 04:29:01;;;;;;;6.72;5.43;;;;;;;21.27;100.00;90838.91;5033705;28;20032;-70
2022/08/07 04:31:28;;;;;;;4.93;4.15;;;;;;;21.62;100.00;90848.41;5034166;28;20033;-72
2022/08/07 04:33:54;;;;;;;5.97;3.72;;;;;;;21.72;100.00;90837.63;5033986;28;20025;-70
2022/08/07 04:36:19;;;;;;;3.90;3.53;;;;;;;21.97;100.00;90842.41;5034042;28;20033;-70
2022/08/07 04:38:45;;;;;;;5.57;3.70;;;;;;;22.26;100.00;90838.69;5033862;28;20037;-70
2022/08/07 04:41:10;;;;;;;4.38;3.38;;;;;;;22.42;100.00;90833.72;5033892;28;20041;-70
2022/08/07 04:43:37;;;;;;;5.43;3.72;;;;;;;22.52;100.00;90837.59;5033881;28;20022;-70
2022/08/07 04:46:10;;;;;;;4.55;3.75;;;;;;;22.40;100.00;90833.28;5033776;28;20034;-70
2022/08/07 04:49:00;;;;;;;4.45;3.53;;;;;;;22.32;100.00;90842.56;5032860;28;20057;-70
2022/08/07 04:51:38;;;;;;;4.05;3.65;;;;;;;22.54;100.00;90837.97;5034035;28;20037;-71
2022/08/07 04:54:31;;;;;;;4.47;3.88;;;;;;;22.79;100.00;90842.69;5033888;28;20446;-70
2022/08/07 04:57:12;;;;;;;5.20;3.47;;;;;;;23.41;92.68;90845.09;5033687;28;20498;-70
2022/08/07 05:00:04;;;;;;;3.92;3.47;;;;;;;23.72;89.31;90848.94;5033447;28;20083;-70
2022/08/07 05:03:14;;;;;;;7.60;4.28;;;;;;;23.92;86.01;90850.06;5033519;28;20112;-70
2022/08/07 05:05:49;;;;;;;4.10;3.45;;;;;;;23.64;88.43;90850.88;4989528;28;20041;-70
2022/08/07 05:08:43;;;;;;;4.57;3.63;;;;;;;23.48;88.48;90855.91;5033405;28;20037;-69
2022/08/07 05:11:10;;;;;;;;;;;;;;;23.24;93.11;90857.50;5007742;28;20182;-70
2022/08/07 05:13:45;;;;;;;4.65;3.85;;;;;;;24.10;91.10;90860.88;5033223;28;19968;-70
2022/08/07 05:16:13;;;;;;;3.78;3.20;;;;;;;27.79;67.23;90863.28;5033260;28;20021;-70
2022/08/07 05:18:46;;;;;;;5.43;4.47;;;;;;;30.69;55.72;90871.81;5033102;28;20045;-71
2022/08/07 05:21:13;;;;;;;14.50;10.30;;;;;;;33.22;49.20;90877.50;5033179;28;20506;-70
2022/08/07 05:23:44;;;;;;;10.20;8.52;;;;;;;34.36;45.49;90875.09;5033420;28;20130;-70
2022/08/07 05:26:17;;;;;;;4.93;4.43;;;;;;;34.77;44.84;90882.03;5033109;28;20036;-70
2022/08/07 05:28:45;;;;;;;4.75;4.10;;;;;;;35.99;42.56;90887.22;5033198;28;20036;-71
2022/08/07 05:31:12;;;;;;;4.88;4.00;;;;;;;37.48;39.51;90880.97;5032966;28;20147;-71
2022/08/07 05:33:39;;;;;;;7.45;5.80;;;;;;;37.22;39.03;90885.50;5032896;28;20104;-71
2022/08/07 05:36:07;;;;;;;11.48;9.50;;;;;;;36.93;40.88;90892.56;5032872;28;20586;-70
2022/08/07 05:38:33;;;;;;;4.70;4.30;;;;;;;36.42;41.33;90893.47;5032577;28;20053;-71
2022/08/07 05:41:01;;;;;;;6.15;4.32;;;;;;;35.56;42.84;90898.75;5032800;28;20044;-71
2022/08/07 05:43:27;;;;;;;7.20;4.63;;;;;;;35.31;43.47;90897.06;5032690;28;20554;-72
2022/08/07 05:45:54;;;;;;;5.50;4.38;;;;;;;34.70;43.79;90896.91;5032681;28;20036;-72
2022/08/07 05:48:20;;;;;;;7.38;6.35;;;;;;;35.20;42.53;90903.09;5032593;28;20040;-72
2022/08/07 05:50:46;;;;;;;6.20;3.85;;;;;;;34.87;42.95;90905.69;5032846;28;20414;-71
2022/08/07 05:53:11;;;;;;;4.82;3.63;;;;;;;36.47;40.31;90911.47;5032464;28;20116;-72
2022/08/07 05:55:38;;;;;;;10.20;6.95;;;;;;;36.15;40.67;90904.69;5014689;28;20113;-72
2022/08/07 05:58:04;;;;;;;4.55;4.00;;;;;;;35.58;42.05;90908.09;5032418;28;20482;-74
2022/08/07 06:00:32;;;;;;;5.20;4.28;;;;;;;35.95;40.40;90908.75;5032391;28;20036;-69
2022/08/07 06:03:00;;;;;;;5.38;3.83;;;;;;;35.74;40.09;90906.22;5032458;28;20029;-68
2022/08/07 06:05:27;;;;;;;4.50;4.10;;;;;;;35.15;41.56;90906.44;5014616;28;20457;-68
2022/08/07 06:07:54;;;;;;;5.40;4.40;;;;;;;35.29;42.21;90908.59;5031909;28;20025;-69
2022/08/07 06:10:21;;;;;;;6.03;4.38;;;;;;;34.40;42.87;90908.84;5031796;28;20481;-70
2022/08/07 06:12:47;;;;;;;6.75;4.30;;;;;;;33.69;44.01;90900.59;5032388;28;20479;-70
2022/08/07 06:15:15;;;;;;;4.38;3.85;;;;;;;32.93;45.41;90910.06;5032053;28;20468;-69
2022/08/07 06:17:42;;;;;;;6.47;4.10;;;;;;;32.61;46.60;90905.66;5032294;28;20045;-70
2022/08/07 06:20:09;;;;;;;5.70;4.65;;;;;;;33.90;44.34;90910.81;5031735;28;20479;-70
2022/08/07 06:22:36;;;;;;;7.13;6.03;;;;;;;35.60;41.31;90913.16;5032138;28;20022;-69
2022/08/07 06:25:03;;;;;;;4.85;4.00;;;;;;;36.88;38.90;90909.84;5031848;28;20026;-69
2022/08/07 06:27:29;;;;;;;4.15;3.70;;;;;;;35.77;39.86;90905.28;5031913;28;20116;-68
2022/08/07 06:29:54;;;;;;;5.75;4.25;;;;;;;34.92;41.47;90910.63;5031648;28;20061;-67
2022/08/07 06:32:20;;;;;;;4.75;3.90;;;;;;;34.03;43.16;90922.53;5019830;28;20483;-68
2022/08/07 06:34:45;;;;;;;4.95;4.10;;;;;;;35.29;41.00;90922.41;5011688;28;20030;-67
2022/08/07 06:37:11;;;;;;;5.60;4.35;;;;;;;33.08;44.23;90924.13;5011726;28;20025;-67
2022/08/07 06:39:37;;;;;;;6.90;4.63;;;;;;;31.26;47.10;90910.69;5011013;28;20033;-69
2022/08/07 06:42:15;;;;;;;4.63;3.78;;;;;;;33.23;44.39;90920.41;5011553;28;20022;-69
2022/08/07 06:44:42;;;;;;;4.05;3.47;;;;;;;34.60;40.99;90908.44;5011471;28;20120;-69
2022/08/07 06:47:08;;;;;;;3.92;3.47;;;;;;;35.14;40.43;90910.44;5011633;28;20033;-69
2022/08/07 06:49:33;;;;;;;4.35;3.50;;;;;;;33.70;42.00;90913.94;5011532;28;20034;-69
2022/08/07 06:52:01;;;;;;;5.10;3.88;;;;;;;34.39;41.51;90913.59;5011475;28;20396;-68
2022/08/07 06:54:27;;;;;;;5.10;4.05;;;;;;;34.52;40.65;90911.47;5010878;28;20022;-68
2022/08/07 06:56:55;;;;;;;4.55;3.45;;;;;;;34.17;40.91;90921.97;5011384;28;20030;-69
2022/08/07 06:59:34;;;;;;;6.32;4.57;;;;;;;36.48;37.49;90913.00;5011327;28;20042;-69
2022/08/07 07:02:01;;;;;;;4.90;3.38;;;;;;;35.44;39.22;90908.75;5011437;28;20037;-70
2022/08/07 07:04:29;;;;;;;6.63;4.55;;;;;;;34.95;40.17;90917.22;5011400;28;20026;-71
2022/08/07 07:06:55;;;;;;;6.30;4.38;;;;;;;36.23;37.25;90908.66;5011232;28;20412;-71
2022/08/07 07:09:25;;;;;;;7.57;5.30;;;;;;;35.31;39.10;90931.03;5010619;28;20050;-71
2022/08/07 07:12:02;;;;;;;4.20;3.72;;;;;;;37.36;37.48;90921.63;5010912;28;20080;-71
2022/08/07 07:14:35;;;;;;;4.30;3.15;;;;;;;39.24;33.83;90921.50;5011099;28;20076;-72
2022/08/07 07:17:05;;;;;;;5.30;3.67;;;;;;;40.40;32.77;90928.75;5011106;28;20119;-72
2022/08/07 07:19:41;;;;;;;4.93;3.63;;;;;;;39.89;33.45;90925.97;5010884;28;20065;-71
2022/08/07 07:22:08;;;;;;;5.78;4.18;;;;;;;39.92;32.97;90928.53;5011116;28;20018;-72
2022/08/07 07:24:34;;;;;;;4.38;3.40;;;;;;;39.58;33.26;90926.69;5010770;28;20463;-72
2022/08/07 07:27:03;;;;;;;6.45;4.80;;;;;;;39.03;34.49;90933.13;5011014;28;20036;-70
2022/08/07 07:29:35;;;;;;;5.85;4.13;;;;;;;37.50;35.88;90930.44;5011014;28;20646;-69
2022/08/07 07:32:04;;;;;;;4.93;3.78;;;;;;;37.19;37.30;90920.53;5010991;28;20025;-69
2022/08/07 07:34:32;;;;;;;4.38;3.65;;;;;;;38.59;34.84;90928.47;5011036;28;20380;-71
2022/08/07 07:37:02;;;;;;;5.78;4.95;;;;;;;36.24;37.21;90922.03;5011058;28;20460;-70
2022/08/07 07:39:29;;;;;;;7.55;5.35;;;;;;;39.07;34.98;90936.44;5010536;28;20061;-72
2022/08/07 07:41:55;;;;;;;4.50;3.40;;;;;;;35.90;37.81;90928.78;4993311;28;20037;-73
2022/08/07 07:44:23;;;;;;;5.90;4.15;;;;;;;34.54;39.39;90935.88;5010924;28;20064;-70
2022/08/07 07:46:49;;;;;;;4.80;4.00;;;;;;;32.01;42.38;90922.16;5010922;28;20034;-72
2022/08/07 07:49:18;;;;;;;4.95;3.63;;;;;;;29.00;47.96;90926.75;5010895;28;20626;-72
2022/08/07 07:51:46;;;;;;;4.97;3.97;;;;;;;31.53;46.31;90927.53;4993723;28;20513;-73
2022/08/07 07:54:14;;;;;;;5.28;4.32;;;;;;;35.27;39.56;90924.88;5010419;28;20026;-69
2022/08/07 07:56:42;;;;;;;3.10;2.80;;;;;;;38.24;35.45;90926.44;5010846;28;20033;-70
2022/08/07 07:59:11;;;;;;;4.20;3.53;;;;;;;39.43;33.50;90935.88;5011018;28;20057;-71
2022/08/07 08:01:41;;;;;;;5.47;3.80;;;;;;;39.56;32.90;90934.78;5010697;28;20399;-71
2022/08/07 08:04:07;;;;;;;4.13;3.72;;;;;;;39.16;33.23;90933.56;5010820;28;20033;-71
2022/08/07 08:06:34;;;;;;;4.50;3.38;;;;;;;39.67;32.90;90932.88;5010905;28;20030;-70
2022/08/07 08:09:04;;;;;;;4.03;3.25;;;;;;;38.75;33.34;90939.06;5010713;28;20522;-71
2022/08/07 08:11:30;;;;;;;4.95;3.92;;;;;;;39.02;33.00;90940.69;5010943;28;20054;-70
2022/08/07 08:13:56;;;;;;;5.72;3.78;;;;;;;36.25;36.76;90940.19;5010921;28;20068;-71
2022/08/07 08:16:31;;;;;;;4.78;3.90;;;;;;;37.62;36.08;90940.53;5010923;28;20026;-70
2022/08/07 08:18:58;;;;;;;4.22;3.65;;;;;;;37.22;35.35;90935.44;5010761;28;20026;-70
2022/08/07 08:27:04;;;;;;;5.63;4.00;;;;;;;32.05;45.62;90931.88;5014932;28;20044;-70
2022/08/07 08:29:40;;;;;;;5.57;3.88;;;;;;;36.12;38.80;90936.09;5014618;28;20470;-70
2022/08/07 08:32:10;;;;;;;4.72;3.90;;;;;;;38.77;33.84;90931.00;5014315;28;20484;-72
2022/08/07 08:34:38;;;;;;;4.45;3.45;;;;;;;36.39;37.36;90933.22;5014166;28;20479;-71
2022/08/07 08:37:07;;;;;;;4.97;3.63;;;;;;;33.49;40.44;90936.84;5014539;28;20044;-71
2022/08/07 08:39:33;;;;;;;5.95;3.53;;;;;;;31.21;43.76;90939.47;5014151;28;20065;-71
2022/08/07 08:42:03;;;;;;;5.53;4.07;;;;;;;30.88;45.05;90938.78;5014126;28;20430;-71
2022/08/07 08:44:41;;;;;;;4.18;3.50;;;;;;;35.11;39.00;90934.28;5013947;28;20037;-71
2022/08/07 08:47:15;;;;;;;5.47;3.60;;;;;;;36.02;37.94;90937.38;5014075;28;20030;-70
2022/08/07 08:49:55;;;;;;;5.53;3.50;;;;;;;33.25;40.53;90934.50;5014144;28;20032;-70
2022/08/07 08:52:31;;;;;;;7.10;4.40;;;;;;;31.39;43.63;90922.44;5013939;28;20033;-71
2022/08/07 08:55:20;;;;;;;4.90;3.70;;;;;;;30.09;45.70;90922.78;5014080;28;20559;-71
2022/08/07 08:58:02;;;;;;;5.15;3.95;;;;;;;28.63;48.37;90920.41;5013773;28;20057;-72
2022/08/07 09:00:34;;;;;;;8.45;4.55;;;;;;;29.47;48.43;90925.38;5013750;28;20109;-71
2022/08/07 09:03:14;;;;;;;5.63;4.10;;;;;;;29.29;49.20;90927.69;5013831;28;20041;-71
2022/08/07 09:05:50;;;;;;;4.38;3.55;;;;;;;30.07;48.59;90916.97;5013740;28;20087;-71
2022/08/07 09:08:31;;;;;;;6.40;3.90;;;;;;;30.13;47.59;90919.94;5013559;28;20072;-70
2022/08/07 09:11:10;;;;;;;4.22;3.47;;;;;;;28.76;49.01;90909.59;5013454;28;20045;-71
2022/08/07 09:13:45;;;;;;;5.47;3.53;;;;;;;27.51;52.06;90919.13;5013619;28;20030;-70
2022/08/07 09:16:33;;;;;;;4.82;4.10;;;;;;;28.62;50.72;90929.81;5013560;28;20487;-70
2022/08/07 09:19:15;;;;;;;5.28;4.25;;;;;;;34.63;40.21;90919.34;5013393;28;20037;-71
2022/08/07 09:22:06;;;;;;;6.55;4.72;;;;;;;36.85;36.60;90913.56;5013474;28;20029;-71
2022/08/07 09:24:40;;;;;;;5.38;3.42;;;;;;;37.66;35.16;90927.97;4976218;28;20037;-70
2022/08/07 09:27:26;;;;;;;4.57;3.63;;;;;;;36.02;36.98;90916.00;5013585;28;20097;-71
2022/08/07 09:29:59;;;;;;;5.30;3.85;;;;;;;35.36;36.92;90915.84;5013135;28;20507;-70
2022/08/07 09:32:30;;;;;;;4.30;3.50;;;;;;;34.08;39.95;90910.13;5013251;28;20032;-71
2022/08/07 09:35:05;;;;;;;4.85;4.32;;;;;;;37.83;35.49;90921.97;5012736;28;20030;-71
2022/08/07 09:37:53;;;;;;;4.20;3.80;;;;;;;38.38;32.90;90913.00;5013199;28;20084;-71
2022/08/07 09:40:36;;;;;;;6.60;4.88;;;;;;;34.96;37.96;90916.00;5013093;28;20581;-70
2022/08/07 09:43:17;;;;;;;5.72;4.15;;;;;;;34.63;37.83;90916.56;5013323;28;20428;-71
2022/08/07 09:45:49;;;;;;;4.28;3.55;;;;;;;34.33;39.46;90903.59;5013015;28;20032;-71
2022/08/07 09:48:33;;;;;;;6.53;4.80;;;;;;;36.35;35.90;90910.47;5012811;28;20034;-71
2022/08/07 09:51:16;;;;;;;4.95;4.32;;;;;;;35.06;38.28;90907.25;5012922;28;20496;-71
2022/08/07 09:53:44;;;;;;;4.95;3.35;;;;;;;35.17;38.09;90903.22;5012911;28;20054;-71
2022/08/07 09:57:00;;;;;;;5.10;4.13;;;;;;;35.60;36.87;90908.41;5012804;28;20056;-70
2022/08/07 09:59:57;;;;;;;11.63;6.75;;;;;;;32.73;40.17;90899.34;4958571;28;20042;-71
2022/08/07 10:02:31;;;;;;;4.43;3.92;;;;;;;30.60;43.39;90890.88;5012616;28;20061;-70
2022/08/07 10:05:05;;;;;;;9.27;6.85;;;;;;;29.60;44.98;90902.78;5012599;28;20030;-71
2022/08/07 10:07:36;;;;;;;6.47;4.97;;;;;;;28.99;46.67;90900.56;5012615;28;20026;-71
2022/08/07 10:10:09;;;;;;;7.00;5.22;;;;;;;31.68;43.11;90896.84;5012645;28;20050;-71
2022/08/07 10:12:43;;;;;;;4.72;3.38;;;;;;;30.72;44.07;90896.88;5012408;28;20030;-71
2022/08/07 10:15:37;;;;;;;8.77;4.45;;;;;;;29.33;46.94;90892.75;5012397;28;20536;-71
2022/08/07 10:18:30;;;;;;;4.90;3.70;;;;;;;28.21;48.98;90905.50;5012285;28;20492;-72
2022/08/07 10:21:25;;;;;;;5.23;4.20;;;;;;;27.55;50.15;90895.25;5012391;28;20029;-71
2022/08/07 10:24:09;;;;;;;4.65;3.78;;;;;;;27.72;51.15;90896.94;5012329;28;20049;-71
2022/08/07 10:27:08;;;;;;;5.53;4.40;;;;;;;28.28;49.66;90899.94;5012232;28;20095;-71
2022/08/07 10:29:42;;;;;;;6.88;5.32;;;;;;;28.73;49.37;90891.28;5012108;28;20483;-72
2022/08/07 10:32:29;;;;;;;5.38;3.80;;;;;;;29.58;48.63;90897.72;5012161;28;20026;-71
2022/08/07 10:35:32;;;;;;;5.25;3.97;;;;;;;29.41;48.13;90907.84;5011990;28;20037;-71
2022/08/07 10:38:15;;;;;;;4.73;3.57;;;;;;;28.67;47.77;90910.16;5011959;28;20026;-71
2022/08/07 10:40:47;;;;;;;3.88;3.35;;;;;;;26.84;53.44;90910.66;5011939;28;20117;-71
2022/08/07 10:43:26;;;;;;;4.72;3.08;;;;;;;25.35;57.80;90913.56;5011925;28;20457;-71
2022/08/07 10:45:58;;;;;;;4.47;3.17;;;;;;;24.61;62.52;90931.03;5011360;28;20553;-70
2022/08/07 10:48:24;;;;;;;4.28;2.70;;;;;;;24.43;65.24;90924.88;5011843;28;20037;-71
2022/08/07 10:50:54;;;;;;;4.00;3.20;;;;;;;24.25;66.52;90924.91;5011807;28;20033;-71
2022/08/07 10:53:26;;;;;;;3.60;3.08;;;;;;;24.20;70.66;90934.25;5011737;28;20030;-70
2022/08/07 10:56:06;;;;;;;5.75;3.75;;;;;;;23.83;78.69;90925.78;5011508;28;20081;-70
2022/08/07 10:58:32;;;;;;;6.00;3.53;;;;;;;23.62;87.02;90920.34;5011492;28;20431;-68
2022/08/07 11:01:08;;;;;;;3.78;3.15;;;;;;;23.31;92.19;90917.97;5011537;28;20516;-69
2022/08/07 11:03:44;;;;;;;6.95;3.88;;;;;;;23.15;97.73;90919.50;5025272;28;20087;-69
2022/08/07 11:06:20;;;;;;;4.05;3.47;;;;;;;23.34;100.00;90915.66;5031292;28;20036;-69
2022/08/07 11:09:04;;;;;;;4.88;3.80;;;;;;;23.42;100.00;90915.28;5031042;28;20049;-70
2022/08/07 11:11:43;;;;;;;6.15;3.97;;;;;;;23.47;100.00;90917.59;5031398;28;20045;-69
2022/08/07 11:15:07;;;;;;;6.45;4.32;;;;;;;22.39;100.00;90913.06;5013425;28;20499;-70
2022/08/07 11:17:50;;;;;;;14.43;9.27;;;;;;;21.86;100.00;90922.84;4969742;28;20082;-71
2022/08/07 11:20:23;;;;;;;6.80;4.60;;;;;;;22.02;100.00;90915.19;4970377;28;20038;-70
2022/08/07 11:23:05;;;;;;;5.78;4.03;;;;;;;23.76;100.00;90914.91;5017065;28;20053;-70
2022/08/07 11:25:38;;;;;;;7.18;4.03;;;;;;;25.00;100.00;90919.25;5031095;28;20099;-70
2022/08/07 11:28:12;;;;;;;5.85;4.15;;;;;;;24.52;100.00;90913.59;5031120;28;20041;-70
2022/08/07 11:30:53;;;;;;;5.43;4.15;;;;;;;23.63;100.00;90922.66;5031095;28;20037;-70
2022/08/07 11:33:46;;;;;;;4.90;3.75;;;;;;;22.19;100.00;90944.34;5013419;28;20041;-72
2022/08/07 11:36:38;;;;;;;5.53;3.70;;;;;;;21.22;100.00;90923.88;5030867;28;20425;-74
2022/08/07 11:39:28;;;;;;;4.80;3.80;;;;;;;20.68;100.00;90916.41;5031296;28;20039;-71
2022/08/07 11:42:09;;;;;;;4.72;4.18;;;;;;;20.72;100.00;90919.16;5030822;28;20095;-72
2022/08/07 11:44:57;;;;;;;6.57;4.03;;;;;;;20.90;100.00;90928.22;5030886;28;20108;-72
2022/08/07 11:47:46;;;;;;;6.78;4.00;;;;;;;21.17;100.00;90913.41;5030847;28;20034;-70
2022/08/07 11:50:53;;;;;;;6.38;4.00;;;;;;;21.65;100.00;90920.75;5030819;28;20045;-70
2022/08/07 11:53:38;;;;;;;6.88;3.90;;;;;;;21.86;100.00;90910.06;5030047;28;20045;-71
2022/08/07 11:56:41;;;;;;;5.18;4.30;;;;;;;22.15;100.00;90915.69;5030659;28;20090;-71